FNHU

Nova Lisboa Airport

Huambo, Angola
METAR FNHU 181400Z 03008KT 9000 NSC 29/02 Q1020
Observed Flight Rules
Aug-18 @ 14:00 UTC (52 minutes ago) Visual Flight Rules
Wind Visibility Clouds
30° at 8 knots 8,996 meters
  • Clear skies
Temperatures Readings
Current 29°C / 84°F
Dewpoint 2°C / 36°F
Humidity 18%
Altimeter 30.12" Hg
Pressure 1020 hPa
Elevation 1701
METAR FNHU 181400Z 03008KT 9000 NSC 29/02 Q1020
Observed Flight Rules
Aug-18 @ 14:00 UTC
(52 minutes ago)
VFR
Wind Visibility
30° at 8 knots 8,996 meters
Clouds
  • Clear skies
Temperature Dewpoint
29°C / 84°F 2°C / 36°F
Humidity Altimeter Pressure
18% 30.12" Hg 1020 hPa